sensor_id;sensor_type;location;lat;lon;timestamp;P1;durP1;ratioP1;P2;durP2;ratioP2
20076;SDS011;12348;42.710;23.378;2023-02-21T00:00:08;11.60;;;4.83;;
20076;SDS011;12348;42.710;23.378;2023-02-21T00:02:53;15.67;;;7.30;;
20076;SDS011;12348;42.710;23.378;2023-02-21T00:05:37;25.90;;;11.63;;
20076;SDS011;12348;42.710;23.378;2023-02-21T00:08:21;19.00;;;9.47;;
20076;SDS011;12348;42.710;23.378;2023-02-21T00:11:05;24.40;;;11.47;;
20076;SDS011;12348;42.710;23.378;2023-02-21T00:13:50;18.60;;;9.40;;
20076;SDS011;12348;42.710;23.378;2023-02-21T00:16:34;27.83;;;10.23;;
20076;SDS011;12348;42.710;23.378;2023-02-21T00:19:18;25.87;;;11.53;;
20076;SDS011;12348;42.710;23.378;2023-02-21T00:22:02;22.90;;;9.27;;
20076;SDS011;12348;42.710;23.378;2023-02-21T00:24:46;23.90;;;9.10;;
20076;SDS011;12348;42.710;23.378;2023-02-21T00:27:31;21.00;;;9.13;;
20076;SDS011;12348;42.710;23.378;2023-02-21T00:30:16;20.17;;;8.63;;
20076;SDS011;12348;42.710;23.378;2023-02-21T00:33:02;20.83;;;7.90;;
20076;SDS011;12348;42.710;23.378;2023-02-21T00:35:46;12.33;;;6.50;;
20076;SDS011;12348;42.710;23.378;2023-02-21T00:38:30;14.00;;;6.37;;
20076;SDS011;12348;42.710;23.378;2023-02-21T00:41:14;11.50;;;5.50;;
20076;SDS011;12348;42.710;23.378;2023-02-21T00:43:59;8.33;;;4.30;;
20076;SDS011;12348;42.710;23.378;2023-02-21T00:46:46;8.93;;;5.40;;
20076;SDS011;12348;42.710;23.378;2023-02-21T00:49:31;6.57;;;3.50;;
20076;SDS011;12348;42.710;23.378;2023-02-21T00:52:15;9.23;;;3.90;;
20076;SDS011;12348;42.710;23.378;2023-02-21T00:54:59;7.30;;;4.17;;
20076;SDS011;12348;42.710;23.378;2023-02-21T00:57:43;7.90;;;3.87;;
20076;SDS011;12348;42.710;23.378;2023-02-21T01:00:28;7.67;;;3.83;;
20076;SDS011;12348;42.710;23.378;2023-02-21T01:03:20;7.00;;;3.67;;
20076;SDS011;12348;42.710;23.378;2023-02-21T01:06:07;7.27;;;3.83;;
20076;SDS011;12348;42.710;23.378;2023-02-21T01:08:52;6.83;;;4.03;;
20076;SDS011;12348;42.710;23.378;2023-02-21T01:11:36;10.53;;;4.33;;
20076;SDS011;12348;42.710;23.378;2023-02-21T01:14:21;4.87;;;3.20;;
20076;SDS011;12348;42.710;23.378;2023-02-21T01:17:05;7.23;;;2.90;;
20076;SDS011;12348;42.710;23.378;2023-02-21T01:19:52;5.20;;;3.03;;
20076;SDS011;12348;42.710;23.378;2023-02-21T01:22:36;6.73;;;3.67;;
20076;SDS011;12348;42.710;23.378;2023-02-21T01:25:20;5.13;;;3.27;;
20076;SDS011;12348;42.710;23.378;2023-02-21T01:28:05;5.27;;;3.33;;
20076;SDS011;12348;42.710;23.378;2023-02-21T01:30:49;5.77;;;3.10;;
20076;SDS011;12348;42.710;23.378;2023-02-21T01:33:34;5.23;;;3.60;;
20076;SDS011;12348;42.710;23.378;2023-02-21T01:36:21;7.07;;;3.63;;
20076;SDS011;12348;42.710;23.378;2023-02-21T01:39:06;4.90;;;3.10;;
20076;SDS011;12348;42.710;23.378;2023-02-21T01:41:50;9.03;;;3.10;;
20076;SDS011;12348;42.710;23.378;2023-02-21T01:44:35;6.67;;;4.40;;
20076;SDS011;12348;42.710;23.378;2023-02-21T01:47:21;4.77;;;2.50;;
20076;SDS011;12348;42.710;23.378;2023-02-21T01:50:08;15.67;;;6.33;;
20076;SDS011;12348;42.710;23.378;2023-02-21T01:52:58;16.87;;;8.23;;
20076;SDS011;12348;42.710;23.378;2023-02-21T01:55:46;27.47;;;10.70;;
20076;SDS011;12348;42.710;23.378;2023-02-21T01:58:31;25.37;;;11.90;;
20076;SDS011;12348;42.710;23.378;2023-02-21T02:01:19;22.23;;;10.10;;
20076;SDS011;12348;42.710;23.378;2023-02-21T02:04:11;17.40;;;7.77;;
20076;SDS011;12348;42.710;23.378;2023-02-21T02:06:56;15.43;;;6.70;;
20076;SDS011;12348;42.710;23.378;2023-02-21T02:09:42;18.97;;;7.90;;
20076;SDS011;12348;42.710;23.378;2023-02-21T02:15:32;17.67;;;7.50;;
20076;SDS011;12348;42.710;23.378;2023-02-21T02:18:16;18.10;;;7.60;;
20076;SDS011;12348;42.710;23.378;2023-02-21T02:24:04;14.17;;;6.60;;
20076;SDS011;12348;42.710;23.378;2023-02-21T02:26:59;10.70;;;5.67;;
20076;SDS011;12348;42.710;23.378;2023-02-21T02:29:48;10.97;;;5.40;;
20076;SDS011;12348;42.710;23.378;2023-02-21T02:32:50;16.80;;;7.13;;
20076;SDS011;12348;42.710;23.378;2023-02-21T02:35:35;10.47;;;5.60;;
20076;SDS011;12348;42.710;23.378;2023-02-21T02:38:11;11.87;;;5.53;;
20076;SDS011;12348;42.710;23.378;2023-02-21T02:40:45;9.77;;;5.37;;
20076;SDS011;12348;42.710;23.378;2023-02-21T02:43:19;10.17;;;5.03;;
20076;SDS011;12348;42.710;23.378;2023-02-21T02:45:52;10.70;;;4.90;;
20076;SDS011;12348;42.710;23.378;2023-02-21T02:48:24;11.00;;;5.53;;
20076;SDS011;12348;42.710;23.378;2023-02-21T02:50:57;7.40;;;3.70;;
20076;SDS011;12348;42.710;23.378;2023-02-21T02:53:28;17.23;;;5.07;;
20076;SDS011;12348;42.710;23.378;2023-02-21T02:55:56;6.73;;;4.00;;
20076;SDS011;12348;42.710;23.378;2023-02-21T02:58:25;7.67;;;3.93;;
20076;SDS011;12348;42.710;23.378;2023-02-21T03:00:59;6.80;;;3.67;;
20076;SDS011;12348;42.710;23.378;2023-02-21T03:03:42;4.77;;;3.73;;
20076;SDS011;12348;42.710;23.378;2023-02-21T03:06:21;4.70;;;3.27;;
20076;SDS011;12348;42.710;23.378;2023-02-21T03:08:56;6.50;;;3.53;;
20076;SDS011;12348;42.710;23.378;2023-02-21T03:11:34;8.40;;;3.80;;
20076;SDS011;12348;42.710;23.378;2023-02-21T03:14:10;6.00;;;3.50;;
20076;SDS011;12348;42.710;23.378;2023-02-21T03:16:41;4.20;;;3.70;;
20076;SDS011;12348;42.710;23.378;2023-02-21T03:19:13;9.97;;;4.47;;
20076;SDS011;12348;42.710;23.378;2023-02-21T03:21:44;7.37;;;4.30;;
20076;SDS011;12348;42.710;23.378;2023-02-21T03:24:14;7.80;;;4.00;;
20076;SDS011;12348;42.710;23.378;2023-02-21T03:26:44;7.80;;;4.63;;
20076;SDS011;12348;42.710;23.378;2023-02-21T03:29:13;11.87;;;4.83;;
20076;SDS011;12348;42.710;23.378;2023-02-21T03:31:43;10.30;;;4.63;;
20076;SDS011;12348;42.710;23.378;2023-02-21T03:34:13;8.20;;;3.60;;
20076;SDS011;12348;42.710;23.378;2023-02-21T03:36:40;7.83;;;4.33;;
20076;SDS011;12348;42.710;23.378;2023-02-21T03:39:09;9.10;;;4.10;;
20076;SDS011;12348;42.710;23.378;2023-02-21T03:41:36;5.17;;;4.10;;
20076;SDS011;12348;42.710;23.378;2023-02-21T03:44:02;7.30;;;3.80;;
20076;SDS011;12348;42.710;23.378;2023-02-21T03:46:29;9.47;;;3.50;;
20076;SDS011;12348;42.710;23.378;2023-02-21T03:48:57;15.03;;;4.73;;
20076;SDS011;12348;42.710;23.378;2023-02-21T03:51:24;11.43;;;4.20;;
20076;SDS011;12348;42.710;23.378;2023-02-21T03:53:50;10.00;;;4.63;;
20076;SDS011;12348;42.710;23.378;2023-02-21T03:56:18;6.13;;;3.37;;
20076;SDS011;12348;42.710;23.378;2023-02-21T03:58:45;6.93;;;3.30;;
20076;SDS011;12348;42.710;23.378;2023-02-21T04:01:12;4.73;;;2.30;;
20076;SDS011;12348;42.710;23.378;2023-02-21T04:03:40;4.60;;;2.43;;
20076;SDS011;12348;42.710;23.378;2023-02-21T04:06:07;6.43;;;3.60;;
20076;SDS011;12348;42.710;23.378;2023-02-21T04:08:34;4.03;;;2.80;;
20076;SDS011;12348;42.710;23.378;2023-02-21T04:11:01;7.43;;;3.17;;
20076;SDS011;12348;42.710;23.378;2023-02-21T04:13:29;4.23;;;2.80;;
20076;SDS011;12348;42.710;23.378;2023-02-21T04:15:56;7.03;;;2.50;;
20076;SDS011;12348;42.710;23.378;2023-02-21T04:18:23;6.47;;;3.53;;
20076;SDS011;12348;42.710;23.378;2023-02-21T04:20:50;7.17;;;3.37;;
20076;SDS011;12348;42.710;23.378;2023-02-21T04:23:17;4.60;;;2.67;;
20076;SDS011;12348;42.710;23.378;2023-02-21T04:25:45;5.50;;;2.90;;
20076;SDS011;12348;42.710;23.378;2023-02-21T04:28:13;4.33;;;2.97;;
20076;SDS011;12348;42.710;23.378;2023-02-21T04:30:43;6.13;;;2.97;;
20076;SDS011;12348;42.710;23.378;2023-02-21T04:33:10;4.80;;;4.00;;
20076;SDS011;12348;42.710;23.378;2023-02-21T04:35:36;5.60;;;4.00;;
20076;SDS011;12348;42.710;23.378;2023-02-21T04:38:03;5.90;;;4.03;;
20076;SDS011;12348;42.710;23.378;2023-02-21T04:40:30;5.97;;;3.53;;
20076;SDS011;12348;42.710;23.378;2023-02-21T04:42:57;17.87;;;4.03;;
20076;SDS011;12348;42.710;23.378;2023-02-21T04:45:23;8.40;;;4.47;;
20076;SDS011;12348;42.710;23.378;2023-02-21T04:47:51;15.07;;;6.60;;
20076;SDS011;12348;42.710;23.378;2023-02-21T04:50:18;12.30;;;7.03;;
20076;SDS011;12348;42.710;23.378;2023-02-21T04:52:45;13.93;;;5.93;;
20076;SDS011;12348;42.710;23.378;2023-02-21T04:55:13;9.50;;;6.33;;
20076;SDS011;12348;42.710;23.378;2023-02-21T04:57:40;9.93;;;6.10;;
20076;SDS011;12348;42.710;23.378;2023-02-21T05:00:08;7.67;;;4.87;;
20076;SDS011;12348;42.710;23.378;2023-02-21T05:02:36;6.37;;;3.80;;
20076;SDS011;12348;42.710;23.378;2023-02-21T05:05:04;4.60;;;3.83;;
20076;SDS011;12348;42.710;23.378;2023-02-21T05:07:31;5.60;;;3.87;;
20076;SDS011;12348;42.710;23.378;2023-02-21T05:09:58;11.77;;;4.53;;
20076;SDS011;12348;42.710;23.378;2023-02-21T05:12:25;10.93;;;4.07;;
20076;SDS011;12348;42.710;23.378;2023-02-21T05:14:52;8.50;;;3.93;;
20076;SDS011;12348;42.710;23.378;2023-02-21T05:17:19;5.93;;;4.40;;
20076;SDS011;12348;42.710;23.378;2023-02-21T05:19:46;9.77;;;5.10;;
20076;SDS011;12348;42.710;23.378;2023-02-21T05:22:14;10.07;;;4.63;;
20076;SDS011;12348;42.710;23.378;2023-02-21T05:24:44;9.33;;;5.20;;
20076;SDS011;12348;42.710;23.378;2023-02-21T05:27:13;11.00;;;4.97;;
20076;SDS011;12348;42.710;23.378;2023-02-21T05:29:41;18.70;;;5.80;;
20076;SDS011;12348;42.710;23.378;2023-02-21T05:32:08;13.90;;;5.40;;
20076;SDS011;12348;42.710;23.378;2023-02-21T05:34:35;10.13;;;4.37;;
20076;SDS011;12348;42.710;23.378;2023-02-21T05:37:02;9.60;;;4.57;;
20076;SDS011;12348;42.710;23.378;2023-02-21T05:39:30;7.83;;;4.77;;
20076;SDS011;12348;42.710;23.378;2023-02-21T05:41:57;14.20;;;4.97;;
20076;SDS011;12348;42.710;23.378;2023-02-21T05:44:23;11.80;;;4.53;;
20076;SDS011;12348;42.710;23.378;2023-02-21T05:46:50;11.77;;;4.63;;
20076;SDS011;12348;42.710;23.378;2023-02-21T05:49:17;8.50;;;5.23;;
20076;SDS011;12348;42.710;23.378;2023-02-21T05:51:43;8.13;;;5.13;;
20076;SDS011;12348;42.710;23.378;2023-02-21T05:54:12;9.83;;;5.17;;
20076;SDS011;12348;42.710;23.378;2023-02-21T05:56:43;11.93;;;4.80;;
20076;SDS011;12348;42.710;23.378;2023-02-21T05:59:11;7.83;;;5.40;;
20076;SDS011;12348;42.710;23.378;2023-02-21T06:01:38;13.17;;;5.50;;
20076;SDS011;12348;42.710;23.378;2023-02-21T06:04:05;9.37;;;4.87;;
20076;SDS011;12348;42.710;23.378;2023-02-21T06:06:32;20.03;;;8.97;;
20076;SDS011;12348;42.710;23.378;2023-02-21T06:08:59;17.43;;;7.47;;
20076;SDS011;12348;42.710;23.378;2023-02-21T06:11:27;14.70;;;6.97;;
20076;SDS011;12348;42.710;23.378;2023-02-21T06:13:59;16.80;;;7.20;;
20076;SDS011;12348;42.710;23.378;2023-02-21T06:16:30;12.70;;;6.63;;
20076;SDS011;12348;42.710;23.378;2023-02-21T06:18:58;20.57;;;7.17;;
20076;SDS011;12348;42.710;23.378;2023-02-21T06:21:24;12.17;;;6.80;;
20076;SDS011;12348;42.710;23.378;2023-02-21T06:23:51;13.57;;;5.50;;
20076;SDS011;12348;42.710;23.378;2023-02-21T06:26:18;11.67;;;5.60;;
20076;SDS011;12348;42.710;23.378;2023-02-21T06:28:46;8.47;;;4.50;;
20076;SDS011;12348;42.710;23.378;2023-02-21T06:31:14;14.67;;;5.70;;
20076;SDS011;12348;42.710;23.378;2023-02-21T06:33:41;9.63;;;5.40;;
20076;SDS011;12348;42.710;23.378;2023-02-21T06:36:10;11.10;;;5.47;;
20076;SDS011;12348;42.710;23.378;2023-02-21T06:38:38;9.83;;;4.40;;
20076;SDS011;12348;42.710;23.378;2023-02-21T06:41:06;7.27;;;4.37;;
20076;SDS011;12348;42.710;23.378;2023-02-21T06:43:34;5.53;;;3.50;;
20076;SDS011;12348;42.710;23.378;2023-02-21T06:46:01;6.17;;;3.07;;
20076;SDS011;12348;42.710;23.378;2023-02-21T06:48:30;5.43;;;2.80;;
20076;SDS011;12348;42.710;23.378;2023-02-21T06:50:57;5.50;;;2.93;;
20076;SDS011;12348;42.710;23.378;2023-02-21T06:53:23;5.10;;;2.40;;
20076;SDS011;12348;42.710;23.378;2023-02-21T06:55:51;8.83;;;2.60;;
20076;SDS011;12348;42.710;23.378;2023-02-21T06:58:17;7.90;;;2.70;;
20076;SDS011;12348;42.710;23.378;2023-02-21T07:00:44;5.60;;;2.33;;
20076;SDS011;12348;42.710;23.378;2023-02-21T07:03:11;3.67;;;2.10;;
20076;SDS011;12348;42.710;23.378;2023-02-21T07:05:39;4.47;;;2.40;;
20076;SDS011;12348;42.710;23.378;2023-02-21T07:08:06;3.60;;;2.47;;
20076;SDS011;12348;42.710;23.378;2023-02-21T07:10:33;8.57;;;3.10;;
20076;SDS011;12348;42.710;23.378;2023-02-21T07:12:59;5.33;;;2.80;;
20076;SDS011;12348;42.710;23.378;2023-02-21T07:15:26;3.83;;;3.03;;
20076;SDS011;12348;42.710;23.378;2023-02-21T07:17:53;5.33;;;2.23;;
20076;SDS011;12348;42.710;23.378;2023-02-21T07:20:20;7.20;;;3.63;;
20076;SDS011;12348;42.710;23.378;2023-02-21T07:22:48;6.47;;;2.97;;
20076;SDS011;12348;42.710;23.378;2023-02-21T07:25:16;4.90;;;2.80;;
20076;SDS011;12348;42.710;23.378;2023-02-21T07:27:43;4.50;;;2.20;;
20076;SDS011;12348;42.710;23.378;2023-02-21T07:30:12;6.07;;;2.13;;
20076;SDS011;12348;42.710;23.378;2023-02-21T07:32:42;3.83;;;1.83;;
20076;SDS011;12348;42.710;23.378;2023-02-21T07:35:09;4.53;;;2.40;;
20076;SDS011;12348;42.710;23.378;2023-02-21T07:37:36;8.07;;;2.37;;
20076;SDS011;12348;42.710;23.378;2023-02-21T07:40:06;3.63;;;2.27;;
20076;SDS011;12348;42.710;23.378;2023-02-21T07:42:39;8.83;;;2.50;;
20076;SDS011;12348;42.710;23.378;2023-02-21T07:45:08;7.63;;;2.37;;
20076;SDS011;12348;42.710;23.378;2023-02-21T07:47:35;4.20;;;2.20;;
20076;SDS011;12348;42.710;23.378;2023-02-21T07:50:02;6.37;;;2.30;;
20076;SDS011;12348;42.710;23.378;2023-02-21T07:52:30;10.37;;;2.40;;
20076;SDS011;12348;42.710;23.378;2023-02-21T07:54:58;9.83;;;2.90;;
20076;SDS011;12348;42.710;23.378;2023-02-21T07:57:26;10.57;;;2.73;;
20076;SDS011;12348;42.710;23.378;2023-02-21T07:59:53;5.27;;;2.47;;
20076;SDS011;12348;42.710;23.378;2023-02-21T08:02:20;5.17;;;2.37;;
20076;SDS011;12348;42.710;23.378;2023-02-21T08:04:48;4.07;;;2.13;;
20076;SDS011;12348;42.710;23.378;2023-02-21T08:07:16;3.83;;;2.53;;
20076;SDS011;12348;42.710;23.378;2023-02-21T08:09:42;8.03;;;4.43;;
20076;SDS011;12348;42.710;23.378;2023-02-21T08:12:10;9.70;;;3.60;;
20076;SDS011;12348;42.710;23.378;2023-02-21T08:14:38;14.47;;;6.57;;
20076;SDS011;12348;42.710;23.378;2023-02-21T08:17:05;6.60;;;4.20;;
20076;SDS011;12348;42.710;23.378;2023-02-21T08:19:32;7.33;;;3.27;;
20076;SDS011;12348;42.710;23.378;2023-02-21T08:22:01;8.33;;;3.53;;
20076;SDS011;12348;42.710;23.378;2023-02-21T08:24:28;15.43;;;5.60;;
20076;SDS011;12348;42.710;23.378;2023-02-21T08:26:54;9.07;;;4.70;;
20076;SDS011;12348;42.710;23.378;2023-02-21T08:29:21;9.63;;;4.93;;
20076;SDS011;12348;42.710;23.378;2023-02-21T08:31:49;17.57;;;6.27;;
20076;SDS011;12348;42.710;23.378;2023-02-21T08:34:16;4.27;;;3.13;;
20076;SDS011;12348;42.710;23.378;2023-02-21T08:36:43;9.70;;;4.00;;
20076;SDS011;12348;42.710;23.378;2023-02-21T08:39:10;12.00;;;5.10;;
20076;SDS011;12348;42.710;23.378;2023-02-21T08:41:37;7.67;;;4.23;;
20076;SDS011;12348;42.710;23.378;2023-02-21T08:44:04;13.97;;;4.67;;
20076;SDS011;12348;42.710;23.378;2023-02-21T08:46:32;10.27;;;4.53;;
20076;SDS011;12348;42.710;23.378;2023-02-21T08:49:01;15.83;;;4.17;;
20076;SDS011;12348;42.710;23.378;2023-02-21T08:51:29;9.10;;;3.97;;
20076;SDS011;12348;42.710;23.378;2023-02-21T08:53:57;14.00;;;5.57;;
20076;SDS011;12348;42.710;23.378;2023-02-21T08:56:24;11.67;;;5.87;;
20076;SDS011;12348;42.710;23.378;2023-02-21T08:58:52;11.00;;;6.73;;
20076;SDS011;12348;42.710;23.378;2023-02-21T09:01:20;11.50;;;4.40;;
20076;SDS011;12348;42.710;23.378;2023-02-21T09:03:48;22.03;;;9.23;;
20076;SDS011;12348;42.710;23.378;2023-02-21T09:06:16;9.40;;;4.30;;
20076;SDS011;12348;42.710;23.378;2023-02-21T09:08:43;10.30;;;3.90;;
20076;SDS011;12348;42.710;23.378;2023-02-21T09:11:10;10.57;;;4.07;;
20076;SDS011;12348;42.710;23.378;2023-02-21T09:13:37;7.53;;;3.70;;
20076;SDS011;12348;42.710;23.378;2023-02-21T09:16:04;7.97;;;4.40;;
20076;SDS011;12348;42.710;23.378;2023-02-21T09:18:31;21.30;;;7.63;;
20076;SDS011;12348;42.710;23.378;2023-02-21T09:20:58;16.17;;;6.97;;
20076;SDS011;12348;42.710;23.378;2023-02-21T09:23:27;13.13;;;5.20;;
20076;SDS011;12348;42.710;23.378;2023-02-21T09:25:55;17.20;;;6.80;;
20076;SDS011;12348;42.710;23.378;2023-02-21T09:28:22;11.07;;;6.07;;
20076;SDS011;12348;42.710;23.378;2023-02-21T09:30:49;16.70;;;5.43;;
20076;SDS011;12348;42.710;23.378;2023-02-21T09:33:16;9.30;;;4.73;;
20076;SDS011;12348;42.710;23.378;2023-02-21T09:35:43;17.97;;;6.47;;
20076;SDS011;12348;42.710;23.378;2023-02-21T09:38:10;15.07;;;5.77;;
20076;SDS011;12348;42.710;23.378;2023-02-21T09:40:40;20.43;;;9.33;;
20076;SDS011;12348;42.710;23.378;2023-02-21T09:43:11;17.00;;;5.20;;
20076;SDS011;12348;42.710;23.378;2023-02-21T09:45:40;9.40;;;5.07;;
20076;SDS011;12348;42.710;23.378;2023-02-21T09:48:10;8.87;;;4.80;;
20076;SDS011;12348;42.710;23.378;2023-02-21T09:50:41;8.23;;;4.23;;
20076;SDS011;12348;42.710;23.378;2023-02-21T09:53:12;11.00;;;4.23;;
20076;SDS011;12348;42.710;23.378;2023-02-21T09:55:45;14.80;;;4.97;;
20076;SDS011;12348;42.710;23.378;2023-02-21T09:58:14;9.40;;;4.47;;
20076;SDS011;12348;42.710;23.378;2023-02-21T10:00:43;10.47;;;5.33;;
20076;SDS011;12348;42.710;23.378;2023-02-21T10:03:15;10.17;;;6.47;;
20076;SDS011;12348;42.710;23.378;2023-02-21T10:05:53;12.87;;;6.60;;
20076;SDS011;12348;42.710;23.378;2023-02-21T10:08:29;15.57;;;7.40;;
20076;SDS011;12348;42.710;23.378;2023-02-21T10:11:06;17.13;;;6.40;;
20076;SDS011;12348;42.710;23.378;2023-02-21T10:13:50;18.40;;;8.20;;
20076;SDS011;12348;42.710;23.378;2023-02-21T10:16:23;16.60;;;5.23;;
20076;SDS011;12348;42.710;23.378;2023-02-21T10:18:55;9.97;;;5.17;;
20076;SDS011;12348;42.710;23.378;2023-02-21T10:21:30;11.83;;;5.30;;
20076;SDS011;12348;42.710;23.378;2023-02-21T10:24:00;9.93;;;5.33;;
20076;SDS011;12348;42.710;23.378;2023-02-21T10:26:36;10.10;;;4.10;;
20076;SDS011;12348;42.710;23.378;2023-02-21T10:29:07;10.23;;;5.50;;
20076;SDS011;12348;42.710;23.378;2023-02-21T10:31:45;10.67;;;4.07;;
20076;SDS011;12348;42.710;23.378;2023-02-21T10:34:15;8.50;;;4.53;;
20076;SDS011;12348;42.710;23.378;2023-02-21T10:36:47;7.77;;;5.33;;
20076;SDS011;12348;42.710;23.378;2023-02-21T10:39:16;12.43;;;7.67;;
20076;SDS011;12348;42.710;23.378;2023-02-21T10:41:46;13.83;;;4.93;;
20076;SDS011;12348;42.710;23.378;2023-02-21T10:44:16;12.53;;;5.93;;
20076;SDS011;12348;42.710;23.378;2023-02-21T10:46:48;7.60;;;4.13;;
20076;SDS011;12348;42.710;23.378;2023-02-21T10:49:22;12.93;;;4.07;;
20076;SDS011;12348;42.710;23.378;2023-02-21T10:52:03;6.37;;;3.00;;
20076;SDS011;12348;42.710;23.378;2023-02-21T10:54:31;3.30;;;1.93;;
20076;SDS011;12348;42.710;23.378;2023-02-21T10:56:59;2.67;;;1.67;;
20076;SDS011;12348;42.710;23.378;2023-02-21T10:59:29;3.30;;;2.00;;
20076;SDS011;12348;42.710;23.378;2023-02-21T11:01:58;2.33;;;1.33;;
20076;SDS011;12348;42.710;23.378;2023-02-21T11:04:28;7.20;;;2.70;;
20076;SDS011;12348;42.710;23.378;2023-02-21T11:07:00;2.23;;;1.83;;
20076;SDS011;12348;42.710;23.378;2023-02-21T11:09:34;4.40;;;1.90;;
20076;SDS011;12348;42.710;23.378;2023-02-21T11:12:06;4.60;;;2.63;;
20076;SDS011;12348;42.710;23.378;2023-02-21T11:14:43;3.17;;;1.40;;
20076;SDS011;12348;42.710;23.378;2023-02-21T11:17:28;4.53;;;1.80;;
20076;SDS011;12348;42.710;23.378;2023-02-21T11:19:57;2.80;;;1.50;;
20076;SDS011;12348;42.710;23.378;2023-02-21T11:22:34;5.17;;;2.00;;
20076;SDS011;12348;42.710;23.378;2023-02-21T11:25:03;1.80;;;1.27;;
20076;SDS011;12348;42.710;23.378;2023-02-21T11:27:33;3.40;;;2.50;;
20076;SDS011;12348;42.710;23.378;2023-02-21T11:30:03;3.40;;;1.73;;
20076;SDS011;12348;42.710;23.378;2023-02-21T11:32:39;6.83;;;2.40;;
20076;SDS011;12348;42.710;23.378;2023-02-21T11:35:20;3.17;;;1.50;;
20076;SDS011;12348;42.710;23.378;2023-02-21T11:37:51;2.27;;;1.30;;
20076;SDS011;12348;42.710;23.378;2023-02-21T11:40:32;5.30;;;1.60;;
20076;SDS011;12348;42.710;23.378;2023-02-21T11:43:12;1.37;;;1.10;;
20076;SDS011;12348;42.710;23.378;2023-02-21T11:45:47;2.70;;;1.80;;
20076;SDS011;12348;42.710;23.378;2023-02-21T11:48:23;4.93;;;2.47;;
20076;SDS011;12348;42.710;23.378;2023-02-21T11:50:57;3.73;;;2.17;;
20076;SDS011;12348;42.710;23.378;2023-02-21T11:53:30;3.30;;;1.90;;
20076;SDS011;12348;42.710;23.378;2023-02-21T11:56:03;3.00;;;1.70;;
20076;SDS011;12348;42.710;23.378;2023-02-21T11:58:47;7.13;;;3.20;;
20076;SDS011;12348;42.710;23.378;2023-02-21T12:01:23;2.37;;;1.30;;
20076;SDS011;12348;42.710;23.378;2023-02-21T12:04:03;2.43;;;1.37;;
20076;SDS011;12348;42.710;23.378;2023-02-21T12:06:40;4.00;;;1.10;;
20076;SDS011;12348;42.710;23.378;2023-02-21T12:09:18;5.13;;;1.53;;
20076;SDS011;12348;42.710;23.378;2023-02-21T12:12:03;4.03;;;1.47;;
20076;SDS011;12348;42.710;23.378;2023-02-21T12:14:43;3.50;;;2.10;;
20076;SDS011;12348;42.710;23.378;2023-02-21T12:20:27;2.30;;;1.57;;
20076;SDS011;12348;42.710;23.378;2023-02-21T12:23:11;4.13;;;2.10;;
20076;SDS011;12348;42.710;23.378;2023-02-21T12:25:51;3.00;;;1.30;;
20076;SDS011;12348;42.710;23.378;2023-02-21T12:28:30;5.87;;;2.30;;
20076;SDS011;12348;42.710;23.378;2023-02-21T12:31:10;2.63;;;2.00;;
20076;SDS011;12348;42.710;23.378;2023-02-21T12:33:51;3.03;;;1.43;;
20076;SDS011;12348;42.710;23.378;2023-02-21T12:36:33;1.57;;;1.20;;
20076;SDS011;12348;42.710;23.378;2023-02-21T12:39:15;3.23;;;1.60;;
20076;SDS011;12348;42.710;23.378;2023-02-21T12:44:59;4.07;;;1.50;;
20076;SDS011;12348;42.710;23.378;2023-02-21T12:47:35;2.50;;;1.43;;
20076;SDS011;12348;42.710;23.378;2023-02-21T12:50:10;2.10;;;1.30;;
20076;SDS011;12348;42.710;23.378;2023-02-21T12:52:43;2.23;;;1.43;;
20076;SDS011;12348;42.710;23.378;2023-02-21T12:55:28;1.57;;;1.10;;
20076;SDS011;12348;42.710;23.378;2023-02-21T12:57:59;4.27;;;1.50;;
20076;SDS011;12348;42.710;23.378;2023-02-21T13:00:30;5.27;;;1.63;;
20076;SDS011;12348;42.710;23.378;2023-02-21T13:03:06;6.60;;;2.27;;
20076;SDS011;12348;42.710;23.378;2023-02-21T13:05:43;3.20;;;1.43;;
20076;SDS011;12348;42.710;23.378;2023-02-21T13:08:14;2.67;;;2.03;;
20076;SDS011;12348;42.710;23.378;2023-02-21T13:10:49;3.30;;;1.93;;
20076;SDS011;12348;42.710;23.378;2023-02-21T13:13:19;2.23;;;1.83;;
20076;SDS011;12348;42.710;23.378;2023-02-21T13:15:50;3.13;;;1.40;;
20076;SDS011;12348;42.710;23.378;2023-02-21T13:18:20;2.47;;;1.30;;
20076;SDS011;12348;42.710;23.378;2023-02-21T13:20:51;3.23;;;2.17;;
20076;SDS011;12348;42.710;23.378;2023-02-21T13:23:39;3.90;;;2.13;;
20076;SDS011;12348;42.710;23.378;2023-02-21T13:29:23;6.93;;;1.80;;
20076;SDS011;12348;42.710;23.378;2023-02-21T13:31:57;4.07;;;1.33;;
20076;SDS011;12348;42.710;23.378;2023-02-21T13:34:28;4.90;;;2.17;;
20076;SDS011;12348;42.710;23.378;2023-02-21T13:37:00;1.87;;;1.40;;
20076;SDS011;12348;42.710;23.378;2023-02-21T13:39:30;3.20;;;1.50;;
20076;SDS011;12348;42.710;23.378;2023-02-21T13:42:03;4.03;;;1.27;;
20076;SDS011;12348;42.710;23.378;2023-02-21T13:44:33;3.70;;;1.90;;
20076;SDS011;12348;42.710;23.378;2023-02-21T13:47:06;9.97;;;3.77;;
20076;SDS011;12348;42.710;23.378;2023-02-21T13:49:47;5.33;;;4.40;;
20076;SDS011;12348;42.710;23.378;2023-02-21T13:55:24;15.93;;;8.47;;
20076;SDS011;12348;42.710;23.378;2023-02-21T14:00:51;7.63;;;4.60;;
20076;SDS011;12348;42.710;23.378;2023-02-21T14:06:21;7.47;;;2.13;;
20076;SDS011;12348;42.710;23.378;2023-02-21T14:08:53;3.93;;;2.00;;
20076;SDS011;12348;42.710;23.378;2023-02-21T14:11:26;3.70;;;2.63;;
20076;SDS011;12348;42.710;23.378;2023-02-21T14:13:56;17.20;;;9.80;;
20076;SDS011;12348;42.710;23.378;2023-02-21T14:16:27;3.80;;;3.00;;
20076;SDS011;12348;42.710;23.378;2023-02-21T14:18:58;5.07;;;2.40;;
20076;SDS011;12348;42.710;23.378;2023-02-21T14:21:33;8.13;;;1.37;;
20076;SDS011;12348;42.710;23.378;2023-02-21T14:24:05;2.83;;;1.20;;
20076;SDS011;12348;42.710;23.378;2023-02-21T14:26:40;2.67;;;1.77;;
20076;SDS011;12348;42.710;23.378;2023-02-21T14:29:11;2.67;;;1.67;;
20076;SDS011;12348;42.710;23.378;2023-02-21T14:31:54;2.87;;;1.10;;
20076;SDS011;12348;42.710;23.378;2023-02-21T14:34:27;2.80;;;1.50;;
20076;SDS011;12348;42.710;23.378;2023-02-21T14:37:03;4.40;;;1.63;;
20076;SDS011;12348;42.710;23.378;2023-02-21T14:39:38;4.60;;;2.13;;
20076;SDS011;12348;42.710;23.378;2023-02-21T14:42:13;12.40;;;5.83;;
20076;SDS011;12348;42.710;23.378;2023-02-21T14:47:56;6.80;;;4.17;;
20076;SDS011;12348;42.710;23.378;2023-02-21T14:50:34;2.73;;;1.60;;
20076;SDS011;12348;42.710;23.378;2023-02-21T14:53:20;2.67;;;1.30;;
20076;SDS011;12348;42.710;23.378;2023-02-21T14:56:09;4.67;;;2.30;;
20076;SDS011;12348;42.710;23.378;2023-02-21T14:58:56;4.50;;;1.70;;
20076;SDS011;12348;42.710;23.378;2023-02-21T15:04:24;13.10;;;3.23;;
20076;SDS011;12348;42.710;23.378;2023-02-21T15:07:10;6.03;;;2.90;;
20076;SDS011;12348;42.710;23.378;2023-02-21T15:09:45;3.37;;;1.60;;
20076;SDS011;12348;42.710;23.378;2023-02-21T15:12:32;3.87;;;2.07;;
20076;SDS011;12348;42.710;23.378;2023-02-21T15:15:02;4.97;;;1.77;;
20076;SDS011;12348;42.710;23.378;2023-02-21T15:17:29;4.37;;;1.70;;
20076;SDS011;12348;42.710;23.378;2023-02-21T15:20:04;5.30;;;2.23;;
20076;SDS011;12348;42.710;23.378;2023-02-21T15:22:39;4.40;;;2.17;;
20076;SDS011;12348;42.710;23.378;2023-02-21T15:25:14;5.80;;;2.57;;
20076;SDS011;12348;42.710;23.378;2023-02-21T15:27:58;3.90;;;1.80;;
20076;SDS011;12348;42.710;23.378;2023-02-21T15:30:28;4.10;;;1.87;;
20076;SDS011;12348;42.710;23.378;2023-02-21T15:32:58;4.93;;;2.33;;
20076;SDS011;12348;42.710;23.378;2023-02-21T15:35:31;8.07;;;3.20;;